createdAt,value
2023-02-03T00:00:16.947Z,86.42
2023-02-03T00:03:05.190Z,86.29
2023-02-03T00:05:35.527Z,86.05
2023-02-03T00:08:05.617Z,85.70
2023-02-03T00:10:38.995Z,85.75
2023-02-03T00:13:08.132Z,86.04
2023-02-03T00:15:36.169Z,85.58
2023-02-03T00:18:04.195Z,85.59
2023-02-03T00:20:32.962Z,85.82
2023-02-03T00:23:09.586Z,85.47
2023-02-03T00:25:38.471Z,85.48
2023-02-03T00:28:07.067Z,85.54
2023-02-03T00:30:36.269Z,85.56
2023-02-03T00:33:05.028Z,85.45
2023-02-03T00:35:32.968Z,85.75
2023-02-03T00:38:00.904Z,85.67
2023-02-03T00:40:30.074Z,85.77
2023-02-03T00:42:58.087Z,85.47
2023-02-03T00:45:27.470Z,85.43
2023-02-03T00:47:55.383Z,85.21
2023-02-03T00:50:23.339Z,85.45
2023-02-03T00:52:51.346Z,85.49
2023-02-03T00:55:19.214Z,85.51
2023-02-03T00:57:47.121Z,85.30
2023-02-03T01:00:15.643Z,85.33
2023-02-03T01:02:43.577Z,85.04
2023-02-03T01:05:12.244Z,85.09
2023-02-03T01:07:40.159Z,84.81
2023-02-03T01:10:09.017Z,84.86
2023-02-03T01:12:36.950Z,84.74
2023-02-03T01:15:05.406Z,84.59
2023-02-03T01:17:33.508Z,84.33
2023-02-03T01:20:01.760Z,84.48
2023-02-03T01:22:30.861Z,83.98
2023-02-03T01:24:58.951Z,84.10
2023-02-03T01:27:27.026Z,84.08
2023-02-03T01:29:57.272Z,84.17
2023-02-03T01:32:25.412Z,84.26
2023-02-03T01:34:53.341Z,84.22
2023-02-03T01:37:21.252Z,84.22
2023-02-03T01:39:49.647Z,84.31
2023-02-03T01:42:17.545Z,83.93
2023-02-03T01:44:49.557Z,83.86
2023-02-03T01:47:26.235Z,84.10
2023-02-03T01:50:03.319Z,83.71
2023-02-03T01:52:32.618Z,83.93
2023-02-03T01:55:03.994Z,83.92
2023-02-03T01:57:41.788Z,83.55
2023-02-03T02:00:10.938Z,83.50
2023-02-03T02:02:45.072Z,83.66
2023-02-03T02:05:25.612Z,83.73
2023-02-03T02:07:55.030Z,83.78
2023-02-03T02:10:23.207Z,83.70
2023-02-03T02:12:51.849Z,83.48
2023-02-03T02:15:24.641Z,83.22
2023-02-03T02:18:23.982Z,83.34
2023-02-03T02:20:55.112Z,83.11
2023-02-03T02:23:55.689Z,82.58
2023-02-03T02:26:38.825Z,83.10
2023-02-03T02:29:40.141Z,82.62
2023-02-03T02:32:34.282Z,82.53
2023-02-03T02:35:24.903Z,82.51
2023-02-03T02:38:02.890Z,82.65
2023-02-03T02:40:42.516Z,82.49
2023-02-03T02:43:19.714Z,82.20
2023-02-03T02:45:54.203Z,82.30
2023-02-03T02:48:43.833Z,82.26
2023-02-03T02:51:15.709Z,82.19
2023-02-03T02:53:58.303Z,82.12
2023-02-03T02:56:28.776Z,82.05
2023-02-03T02:58:58.248Z,81.92
2023-02-03T03:01:26.842Z,81.77
2023-02-03T03:03:54.817Z,81.79
2023-02-03T03:06:28.803Z,81.63
2023-02-03T03:09:02.513Z,81.63
2023-02-03T03:11:37.840Z,81.71
2023-02-03T03:14:07.970Z,81.54
2023-02-03T03:16:39.032Z,81.54
2023-02-03T03:19:11.678Z,81.71
2023-02-03T03:22:06.345Z,81.55
2023-02-03T03:24:41.818Z,81.59
2023-02-03T03:27:18.739Z,81.96
2023-02-03T03:30:05.437Z,81.76
2023-02-03T03:32:34.079Z,82.00
2023-02-03T03:35:03.493Z,82.02
2023-02-03T03:37:36.092Z,82.20
2023-02-03T03:40:15.941Z,82.47
2023-02-03T03:43:01.413Z,82.67
2023-02-03T03:45:38.292Z,82.68
2023-02-03T03:48:13.215Z,82.69
2023-02-03T03:50:47.517Z,82.61
2023-02-03T03:53:17.402Z,82.88
2023-02-03T03:55:49.839Z,83.09
2023-02-03T03:58:24.931Z,83.33
2023-02-03T04:00:56.497Z,83.22
2023-02-03T04:03:35.523Z,83.05
2023-02-03T04:06:04.075Z,83.02
2023-02-03T04:08:32.017Z,83.56
2023-02-03T04:10:59.925Z,83.25
2023-02-03T04:13:27.854Z,83.28
2023-02-03T04:15:55.843Z,83.07
2023-02-03T04:18:23.810Z,82.94
2023-02-03T04:20:51.741Z,83.33
2023-02-03T04:23:19.686Z,83.16
2023-02-03T04:25:47.630Z,83.37
2023-02-03T04:28:15.888Z,83.34
2023-02-03T04:30:43.818Z,83.37
2023-02-03T04:33:11.799Z,83.24
2023-02-03T04:35:39.726Z,82.99
2023-02-03T04:38:07.662Z,83.26
2023-02-03T04:40:35.666Z,83.23
2023-02-03T04:43:08.050Z,83.29
2023-02-03T04:45:35.993Z,83.40
2023-02-03T04:48:05.027Z,83.61
2023-02-03T04:50:32.987Z,83.61
2023-02-03T04:53:01.391Z,83.65
2023-02-03T04:55:29.330Z,83.74
2023-02-03T04:57:59.215Z,83.84
2023-02-03T05:00:29.061Z,84.04
2023-02-03T05:02:57.313Z,84.07
2023-02-03T05:05:25.564Z,83.99
2023-02-03T05:07:53.510Z,83.91
2023-02-03T05:17:57.313Z,84.76
2023-02-03T05:20:25.539Z,84.78
2023-02-03T05:22:53.673Z,84.86
2023-02-03T05:25:21.526Z,85.27
2023-02-03T05:27:49.845Z,85.36
2023-02-03T05:30:18.294Z,85.36
2023-02-03T05:32:46.136Z,84.98
2023-02-03T05:35:13.971Z,84.90
2023-02-03T05:37:44.771Z,84.71
2023-02-03T05:40:32.847Z,84.87
2023-02-03T05:43:00.896Z,85.02
2023-02-03T05:45:29.029Z,84.83
2023-02-03T05:47:57.335Z,85.18
2023-02-03T05:50:27.258Z,85.33
2023-02-03T05:52:55.556Z,85.42
2023-02-03T05:55:24.924Z,85.12
2023-02-03T05:57:54.309Z,85.42
2023-02-03T06:00:23.359Z,85.32
2023-02-03T06:02:56.087Z,84.94
2023-02-03T06:05:25.349Z,85.32
2023-02-03T06:07:53.242Z,85.41
2023-02-03T06:10:21.997Z,85.44
2023-02-03T06:12:50.140Z,85.81
2023-02-03T06:15:18.006Z,85.68
2023-02-03T06:17:48.389Z,86.08
2023-02-03T06:20:18.737Z,86.12
2023-02-03T06:22:46.686Z,86.21
2023-02-03T06:25:14.653Z,86.15
2023-02-03T06:27:42.641Z,86.28
2023-02-03T06:30:11.644Z,86.29
2023-02-03T06:32:39.554Z,86.38
2023-02-03T06:35:08.165Z,86.73
2023-02-03T06:37:36.449Z,86.92
2023-02-03T06:40:05.142Z,86.93
2023-02-03T06:42:33.491Z,86.72
2023-02-03T06:45:01.393Z,86.90
2023-02-03T06:47:29.431Z,87.02
2023-02-03T06:49:57.377Z,87.02
2023-02-03T06:52:25.933Z,87.13
2023-02-03T06:54:53.821Z,87.16
2023-02-03T06:57:21.647Z,87.30
2023-02-03T06:59:49.609Z,87.45
2023-02-03T07:02:17.548Z,87.17
2023-02-03T07:04:45.538Z,87.66
2023-02-03T07:07:13.372Z,87.60
2023-02-03T07:09:41.311Z,87.21
2023-02-03T07:12:10.054Z,87.46
2023-02-03T07:14:39.503Z,87.46
2023-02-03T07:17:07.500Z,87.53
2023-02-03T07:19:35.318Z,87.45
2023-02-03T07:22:03.208Z,87.15
2023-02-03T07:24:31.041Z,87.52
2023-02-03T07:26:58.968Z,87.71
2023-02-03T07:29:26.774Z,87.49
2023-02-03T07:31:54.795Z,87.28
2023-02-03T07:34:23.040Z,87.53
2023-02-03T07:36:50.867Z,87.61
2023-02-03T07:39:18.692Z,87.51
2023-02-03T07:41:46.716Z,87.80
2023-02-03T07:44:15.152Z,87.53
2023-02-03T07:46:45.104Z,87.19
2023-02-03T07:49:13.781Z,87.37
2023-02-03T07:51:41.612Z,87.32
2023-02-03T07:54:09.479Z,87.02
2023-02-03T07:56:37.478Z,86.86
2023-02-03T07:59:05.386Z,86.59
2023-02-03T08:01:34.297Z,86.77
2023-02-03T08:04:05.509Z,86.87
2023-02-03T08:06:33.481Z,86.47
2023-02-03T08:09:01.418Z,86.32
2023-02-03T08:11:29.331Z,86.31
2023-02-03T08:13:57.168Z,86.19
2023-02-03T08:16:25.102Z,86.18
2023-02-03T08:18:53.406Z,86.27
2023-02-03T08:21:21.331Z,85.95
2023-02-03T08:23:49.264Z,86.03
2023-02-03T08:26:17.407Z,85.74
2023-02-03T08:28:50.295Z,85.29
2023-02-03T08:31:18.684Z,85.06
2023-02-03T08:36:32.213Z,84.44
2023-02-03T08:39:00.386Z,84.41
2023-02-03T08:41:28.560Z,84.24
2023-02-03T08:43:56.651Z,84.10
2023-02-03T08:46:24.610Z,83.85
2023-02-03T08:48:56.509Z,83.92
2023-02-03T08:51:24.997Z,83.47
2023-02-03T08:53:53.036Z,83.59
2023-02-03T08:56:21.393Z,83.14
2023-02-03T08:58:49.374Z,82.74
2023-02-03T09:01:17.375Z,82.55
2023-02-03T09:03:45.439Z,82.75
2023-02-03T09:06:16.815Z,82.17
2023-02-03T09:08:46.415Z,81.62
2023-02-03T09:11:17.641Z,81.43
2023-02-03T09:13:46.257Z,80.97
2023-02-03T09:16:19.660Z,80.83
2023-02-03T09:18:48.006Z,80.33
2023-02-03T09:21:31.626Z,80.20
2023-02-03T09:24:02.771Z,80.24
2023-02-03T09:26:31.331Z,79.70
2023-02-03T09:28:59.633Z,79.44
2023-02-03T09:31:27.700Z,78.38
2023-02-03T09:33:55.790Z,77.90
2023-02-03T09:36:23.706Z,77.83
2023-02-03T09:38:51.676Z,78.09
2023-02-03T09:41:25.722Z,77.77
2023-02-03T09:44:02.819Z,77.72
2023-02-03T09:46:37.940Z,77.35
2023-02-03T09:49:37.314Z,77.08
2023-02-03T09:52:18.010Z,76.82
2023-02-03T09:55:33.595Z,76.93
2023-02-03T09:58:10.434Z,76.48
2023-02-03T10:00:50.076Z,76.39
2023-02-03T10:03:48.001Z,75.99
2023-02-03T10:06:38.753Z,74.93
2023-02-03T10:09:06.720Z,74.73
2023-02-03T10:11:56.929Z,74.31
2023-02-03T10:14:49.971Z,73.93
2023-02-03T10:17:30.764Z,74.60
2023-02-03T10:20:04.569Z,74.62
2023-02-03T10:22:38.251Z,74.72
2023-02-03T10:25:25.285Z,73.97
2023-02-03T10:27:58.764Z,73.97
2023-02-03T10:30:32.027Z,74.02
2023-02-03T10:33:10.464Z,73.77
2023-02-03T10:35:52.380Z,73.89
2023-02-03T10:38:47.468Z,73.68
2023-02-03T10:41:18.067Z,73.62
2023-02-03T10:43:47.642Z,73.69
2023-02-03T10:46:17.778Z,73.48
2023-02-03T10:48:45.896Z,72.89
2023-02-03T10:51:26.472Z,72.53
2023-02-03T10:53:54.733Z,72.41
2023-02-03T10:56:29.970Z,72.39
2023-02-03T10:59:00.302Z,72.31
2023-02-03T11:01:41.605Z,72.57
2023-02-03T11:04:28.893Z,72.36
2023-02-03T11:07:02.889Z,71.67
2023-02-03T11:09:41.024Z,72.39
2023-02-03T11:12:17.019Z,72.11
2023-02-03T11:14:52.095Z,72.27
2023-02-03T11:17:30.140Z,72.60
2023-02-03T11:20:13.054Z,71.67
2023-02-03T11:22:43.365Z,71.86
2023-02-03T11:25:22.903Z,71.77
2023-02-03T11:27:51.357Z,71.53
2023-02-03T11:30:24.854Z,71.07
2023-02-03T11:32:53.861Z,71.01
2023-02-03T11:35:25.049Z,70.76
2023-02-03T11:37:58.882Z,70.76
2023-02-03T11:40:34.350Z,70.67
2023-02-03T11:43:16.762Z,70.45
2023-02-03T11:45:53.333Z,70.85
2023-02-03T11:48:55.649Z,70.55
2023-02-03T11:51:34.363Z,69.98
2023-02-03T11:54:40.294Z,70.28
2023-02-03T11:57:30.615Z,70.01
2023-02-03T12:00:15.898Z,70.07
2023-02-03T12:02:54.011Z,70.00
2023-02-03T12:06:00.966Z,69.84
2023-02-03T12:08:40.995Z,69.83
2023-02-03T12:11:24.657Z,69.70
2023-02-03T12:14:31.208Z,69.73
2023-02-03T12:17:28.972Z,69.33
2023-02-03T12:20:14.450Z,69.16
2023-02-03T12:22:57.782Z,69.36
2023-02-03T12:25:50.943Z,69.02
2023-02-03T12:28:39.987Z,68.93
2023-02-03T12:31:16.179Z,69.02
2023-02-03T12:33:52.247Z,68.70
2023-02-03T12:36:50.399Z,68.74
2023-02-03T12:39:26.471Z,68.53
2023-02-03T12:42:04.677Z,68.76
2023-02-03T12:44:40.756Z,68.63
2023-02-03T12:47:27.128Z,68.47
2023-02-03T12:49:59.698Z,68.42
2023-02-03T12:52:39.140Z,67.90
2023-02-03T12:55:27.493Z,68.35
2023-02-03T12:58:37.233Z,67.72
2023-02-03T13:01:31.435Z,67.89
2023-02-03T13:04:16.279Z,68.08
2023-02-03T13:06:47.028Z,68.15
2023-02-03T13:09:32.931Z,68.25
2023-02-03T13:12:08.356Z,68.52
2023-02-03T13:14:45.431Z,68.85
2023-02-03T13:17:26.606Z,69.30
2023-02-03T13:20:03.105Z,69.74
2023-02-03T13:22:31.142Z,70.46
2023-02-03T13:25:26.864Z,72.66
2023-02-03T13:28:11.597Z,72.58
2023-02-03T13:30:55.111Z,72.35
2023-02-03T13:33:23.127Z,72.96
2023-02-03T13:36:09.954Z,73.16
2023-02-03T13:38:51.643Z,73.92
2023-02-03T13:41:34.957Z,74.79
2023-02-03T13:44:04.202Z,78.81
2023-02-03T13:46:35.912Z,79.46
2023-02-03T13:49:06.367Z,79.36
2023-02-03T13:51:46.202Z,79.39
2023-02-03T13:54:27.959Z,79.62
2023-02-03T13:57:01.681Z,81.65
2023-02-03T13:59:43.166Z,83.28
2023-02-03T14:02:20.213Z,83.44
2023-02-03T14:04:48.435Z,83.22
2023-02-03T14:07:41.482Z,83.13
2023-02-03T14:10:12.423Z,82.95
2023-02-03T14:12:50.120Z,82.55
2023-02-03T14:15:23.153Z,83.16
2023-02-03T14:17:51.088Z,86.65
2023-02-03T14:20:28.273Z,87.08
2023-02-03T14:23:06.789Z,88.38
2023-02-03T14:25:42.419Z,89.66
2023-02-03T14:28:24.312Z,89.93
2023-02-03T14:31:05.332Z,90.73
2023-02-03T14:33:48.921Z,90.97
2023-02-03T14:36:35.882Z,90.97
2023-02-03T14:39:25.540Z,91.21
2023-02-03T14:42:09.453Z,90.86
2023-02-03T14:44:40.497Z,89.69
2023-02-03T14:47:24.043Z,89.18
2023-02-03T14:50:13.967Z,88.68
2023-02-03T14:52:54.165Z,89.33
2023-02-03T14:55:35.568Z,89.55
2023-02-03T14:58:14.708Z,91.84
2023-02-03T15:00:43.270Z,93.54
2023-02-03T15:03:11.380Z,93.79
2023-02-03T15:05:48.355Z,94.20
2023-02-03T15:08:49.069Z,94.85
2023-02-03T15:11:32.088Z,95.35
2023-02-03T15:14:19.720Z,95.12
2023-02-03T15:16:53.508Z,96.22
2023-02-03T15:19:25.778Z,97.26
2023-02-03T15:21:54.363Z,96.89
2023-02-03T15:24:24.413Z,100.00
2023-02-03T15:26:55.107Z,100.00
2023-02-03T15:29:33.024Z,100.00
2023-02-03T15:32:13.140Z,100.00
2023-02-03T15:34:49.557Z,100.00
2023-02-03T15:37:18.122Z,100.00
2023-02-03T15:39:55.939Z,100.00
2023-02-03T15:42:38.838Z,100.00
2023-02-03T15:45:31.095Z,100.00
2023-02-03T15:48:18.129Z,100.00
2023-02-03T15:50:55.476Z,100.00
2023-02-03T15:53:46.820Z,100.00
2023-02-03T15:56:24.779Z,100.00
2023-02-03T15:58:53.611Z,100.00
2023-02-03T16:01:26.843Z,100.00
2023-02-03T16:03:57.267Z,100.00
2023-02-03T16:06:28.054Z,100.00
2023-02-03T16:08:58.202Z,100.00
2023-02-03T16:11:44.352Z,100.00
2023-02-03T16:14:32.738Z,100.00
2023-02-03T16:17:05.462Z,100.00
2023-02-03T16:19:40.390Z,100.00
2023-02-03T16:22:28.159Z,100.00
2023-02-03T16:24:56.732Z,100.00
2023-02-03T16:27:27.872Z,100.00
2023-02-03T16:30:25.150Z,100.00
2023-02-03T16:33:24.237Z,100.00
2023-02-03T16:36:10.865Z,100.00
2023-02-03T16:38:57.739Z,100.00
2023-02-03T16:41:44.559Z,100.00
2023-02-03T16:44:31.269Z,100.00
2023-02-03T16:47:17.891Z,100.00
2023-02-03T16:50:04.678Z,100.00
2023-02-03T16:52:32.991Z,100.00
2023-02-03T16:55:01.028Z,100.00
2023-02-03T16:57:28.931Z,100.00
2023-02-03T16:59:56.957Z,100.00
2023-02-03T17:02:25.463Z,100.00
2023-02-03T17:04:53.763Z,100.00
2023-02-03T17:07:21.667Z,100.00
2023-02-03T17:09:49.640Z,100.00
2023-02-03T17:12:17.620Z,100.00
2023-02-03T17:14:45.523Z,100.00
2023-02-03T17:17:13.557Z,100.00
2023-02-03T17:19:42.037Z,100.00
2023-02-03T17:22:10.024Z,100.00
2023-02-03T17:24:37.977Z,100.00
2023-02-03T17:27:05.944Z,100.00
2023-02-03T17:29:34.115Z,100.00
2023-02-03T17:32:02.391Z,100.00
2023-02-03T17:34:30.419Z,100.00
2023-02-03T17:36:58.558Z,100.00
2023-02-03T17:55:43.139Z,100.00
2023-02-03T17:58:11.467Z,100.00
2023-02-03T18:00:39.692Z,100.00
2023-02-03T18:03:07.664Z,100.00
2023-02-03T18:05:37.369Z,100.00
2023-02-03T18:08:16.213Z,100.00
2023-02-03T18:10:45.222Z,100.00
2023-02-03T18:13:13.230Z,100.00
2023-02-03T18:15:41.259Z,100.00
2023-02-03T18:18:09.460Z,100.00
2023-02-03T18:20:37.572Z,100.00
2023-02-03T18:23:05.671Z,100.00
2023-02-03T18:25:35.786Z,99.98
2023-02-03T18:28:03.994Z,100.00
2023-02-03T18:30:32.503Z,99.94
2023-02-03T18:33:02.178Z,100.00
2023-02-03T18:35:30.459Z,100.00
2023-02-03T18:37:59.006Z,100.00
2023-02-03T18:40:27.134Z,100.00
2023-02-03T18:42:58.536Z,100.00
2023-02-03T18:45:27.359Z,100.00
2023-02-03T18:47:55.811Z,100.00
2023-02-03T18:50:23.988Z,99.91
2023-02-03T18:52:55.896Z,99.96
2023-02-03T18:55:24.451Z,99.93
2023-02-03T18:57:52.450Z,99.76
2023-02-03T19:00:21.287Z,99.97
2023-02-03T19:02:50.455Z,99.92
2023-02-03T19:05:19.267Z,99.86
2023-02-03T19:07:47.985Z,99.94
2023-02-03T19:10:17.570Z,99.85
2023-02-03T19:12:45.940Z,100.00
2023-02-03T19:15:16.520Z,99.83
2023-02-03T19:17:44.450Z,99.81
2023-02-03T19:20:12.989Z,99.54
2023-02-03T19:22:41.104Z,99.40
2023-02-03T19:25:09.176Z,99.71
2023-02-03T19:27:37.369Z,99.47
2023-02-03T19:30:06.164Z,99.56
2023-02-03T19:32:34.319Z,99.62
2023-02-03T19:35:02.497Z,98.99
2023-02-03T19:37:30.553Z,99.43
2023-02-03T19:39:58.651Z,99.35
2023-02-03T19:42:26.807Z,99.41
2023-02-03T19:44:56.816Z,99.36
2023-02-03T19:47:25.372Z,99.26
2023-02-03T19:49:53.530Z,99.35
2023-02-03T19:52:21.548Z,99.66
2023-02-03T19:54:49.760Z,99.44
2023-02-03T19:57:18.001Z,99.09
2023-02-03T19:59:46.064Z,99.19
2023-02-03T20:02:14.973Z,99.45
2023-02-03T20:04:44.295Z,99.12
2023-02-03T20:07:14.352Z,99.10
2023-02-03T20:09:43.163Z,99.04
2023-02-03T20:12:12.278Z,99.17
2023-02-03T20:14:40.439Z,98.92
2023-02-03T20:17:08.709Z,98.72
2023-02-03T20:19:37.030Z,98.71
2023-02-03T20:22:05.052Z,99.08
2023-02-03T20:24:33.034Z,99.08
2023-02-03T20:27:01.301Z,98.82
2023-02-03T20:29:29.300Z,98.49
2023-02-03T20:31:58.848Z,98.54
2023-02-03T20:34:29.739Z,98.78
2023-02-03T20:36:59.064Z,98.96
2023-02-03T20:39:28.305Z,98.93
2023-02-03T20:41:56.379Z,98.54
2023-02-03T20:44:24.366Z,98.45
2023-02-03T20:46:56.168Z,98.33
2023-02-03T20:49:24.274Z,98.43
2023-02-03T20:51:52.395Z,98.34
2023-02-03T20:54:22.421Z,98.95
2023-02-03T20:56:50.438Z,98.86
2023-02-03T20:59:19.795Z,98.55
2023-02-03T21:01:48.572Z,98.68
2023-02-03T21:04:37.707Z,98.46
2023-02-03T21:07:18.287Z,98.65
2023-02-03T21:09:46.339Z,98.47
2023-02-03T21:12:15.228Z,98.29
2023-02-03T21:14:45.026Z,98.58
2023-02-03T21:17:26.522Z,98.52
2023-02-03T21:19:55.422Z,98.71
2023-02-03T21:22:30.403Z,98.61
2023-02-03T21:25:01.445Z,98.13
2023-02-03T21:27:34.890Z,98.03
2023-02-03T21:30:23.063Z,98.17
2023-02-03T21:32:51.094Z,98.37
2023-02-03T21:35:23.808Z,98.32
2023-02-03T21:38:01.957Z,98.37
2023-02-03T21:40:33.320Z,98.06
2023-02-03T21:43:02.435Z,97.98
2023-02-03T21:45:38.033Z,98.47
2023-02-03T21:48:27.780Z,97.88
2023-02-03T21:51:00.155Z,97.85
2023-02-03T21:53:33.411Z,97.86
2023-02-03T21:56:27.118Z,98.36
2023-02-03T21:58:58.927Z,98.10
2023-02-03T22:01:36.758Z,98.35
2023-02-03T22:04:06.662Z,98.10
2023-02-03T22:06:34.627Z,97.82
2023-02-03T22:09:02.651Z,97.45
2023-02-03T22:11:30.974Z,97.56
2023-02-03T22:13:59.798Z,97.92
2023-02-03T22:16:29.307Z,97.34
2023-02-03T22:18:57.434Z,97.09
2023-02-03T22:21:25.511Z,97.58
2023-02-03T22:23:53.550Z,97.53
2023-02-03T22:26:22.682Z,97.24
2023-02-03T22:28:51.083Z,97.28
2023-02-03T22:31:20.067Z,97.46
2023-02-03T22:33:48.937Z,96.99
2023-02-03T22:36:17.266Z,97.22
2023-02-03T22:38:45.308Z,96.98
2023-02-03T22:41:13.674Z,97.02
2023-02-03T22:43:42.243Z,96.99
2023-02-03T22:46:10.446Z,96.71
2023-02-03T22:48:38.596Z,97.09
2023-02-03T22:51:06.772Z,96.91
2023-02-03T22:53:35.056Z,97.35
2023-02-03T22:56:03.318Z,97.41
2023-02-03T22:58:31.391Z,97.63
2023-02-03T23:00:59.461Z,97.25
2023-02-03T23:03:27.758Z,97.26
2023-02-03T23:05:56.626Z,97.36
2023-02-03T23:08:25.216Z,97.47
2023-02-03T23:10:53.295Z,97.74
2023-02-03T23:13:21.668Z,97.29
2023-02-03T23:15:49.802Z,97.08
2023-02-03T23:18:18.112Z,97.08
2023-02-03T23:20:46.076Z,97.44
2023-02-03T23:23:14.590Z,97.61
2023-02-03T23:25:42.525Z,97.14
2023-02-03T23:28:10.738Z,97.04
2023-02-03T23:30:38.768Z,96.92
2023-02-03T23:33:06.943Z,97.36
2023-02-03T23:35:47.100Z,97.42
2023-02-03T23:38:16.298Z,97.44
2023-02-03T23:40:44.695Z,97.26
2023-02-03T23:43:12.863Z,97.21
2023-02-03T23:45:41.367Z,97.53
2023-02-03T23:48:09.604Z,97.21
2023-02-03T23:50:37.577Z,97.35
2023-02-03T23:53:05.674Z,97.51
2023-02-03T23:55:33.915Z,97.41
2023-02-03T23:58:02.444Z,97.19
